Time;durP1;ratioP1;P1;durP2;ratioP2;P2;SDS_P1;SDS_P2;PMS_P1;PMS_P2;Temp;Humidity;BMP_temperature;BMP_pressure;BME280_temperature;BME280_humidity;BME280_pressure;Samples;Min_cycle;Max_cycle;Signal;HPM_P1;HPM_P2
2023/09/17 00:00:20;;;;;;;6.07;4.55;;;;;;;26.52;53.49;99006.97;2049824;28;20547;-63
2023/09/17 00:01:23;;;;;;;6.95;4.80;;;;;;;26.47;53.64;99012.28;2066563;28;20136;-64
2023/09/17 00:02:24;;;;;;;5.10;4.13;;;;;;;26.49;53.73;99012.00;2062113;28;20044;-64
2023/09/17 00:03:26;;;;;;;4.05;3.65;;;;;;;26.49;53.62;99012.84;2064327;28;20132;-64
2023/09/17 00:04:27;;;;;;;5.22;4.50;;;;;;;26.55;53.27;99010.22;2064964;28;20060;-64
2023/09/17 00:05:29;;;;;;;5.05;3.92;;;;;;;26.54;53.21;99008.59;2064967;28;20054;-64
2023/09/17 00:06:30;;;;;;;5.82;4.22;;;;;;;26.55;53.44;99000.19;2064424;28;20179;-63
2023/09/17 00:07:32;;;;;;;4.63;4.18;;;;;;;26.58;53.16;99005.13;2063181;28;20518;-63
2023/09/17 00:08:35;;;;;;;5.78;4.47;;;;;;;26.59;53.18;99004.06;2064174;28;20110;-63
2023/09/17 00:09:36;;;;;;;5.95;4.35;;;;;;;26.56;53.10;99004.56;2063127;28;20144;-63
2023/09/17 00:10:41;;;;;;;4.82;4.35;;;;;;;26.56;53.44;99006.47;2062194;28;20417;-64
2023/09/17 00:11:42;;;;;;;4.75;3.90;;;;;;;26.55;53.15;99010.22;2063222;28;20061;-64
2023/09/17 00:12:44;;;;;;;7.90;4.78;;;;;;;26.56;53.27;99007.28;2062500;28;20045;-64
2023/09/17 00:13:45;;;;;;;4.30;3.83;;;;;;;26.55;53.60;99010.22;2064585;28;20046;-63
2023/09/17 00:14:48;;;;;;;8.40;4.47;;;;;;;26.45;54.00;99000.81;2062540;28;20061;-63
2023/09/17 00:15:49;;;;;;;5.72;4.38;;;;;;;26.52;53.54;99011.53;2059016;28;20062;-63
2023/09/17 00:16:52;;;;;;;4.72;3.65;;;;;;;26.50;53.89;99008.25;2047566;28;20050;-65
2023/09/17 00:17:53;;;;;;;5.45;4.35;;;;;;;26.51;53.70;99013.44;2058631;28;20204;-64
2023/09/17 00:18:55;;;;;;;5.28;4.32;;;;;;;26.49;53.77;99007.41;2062858;28;20046;-64
2023/09/17 00:19:56;;;;;;;5.68;4.20;;;;;;;26.51;53.46;99010.72;2063635;28;20042;-64
2023/09/17 00:20:58;;;;;;;7.22;4.00;;;;;;;26.48;53.60;99013.09;2064559;28;20077;-64
2023/09/17 00:22:00;;;;;;;7.38;5.05;;;;;;;26.49;53.55;99010.13;2058667;28;20113;-64
2023/09/17 00:23:03;;;;;;;4.05;3.60;;;;;;;26.46;53.94;99005.16;2051048;28;20057;-64
2023/09/17 00:24:06;;;;;;;7.03;3.80;;;;;;;26.45;53.52;99006.25;2057663;28;20053;-64
2023/09/17 00:25:09;;;;;;;5.13;4.60;;;;;;;26.49;53.36;99010.13;2060753;28;20057;-64
2023/09/17 00:26:09;;;;;;;4.93;4.53;;;;;;;26.47;53.60;99006.84;2060109;28;20053;-64
2023/09/17 00:27:10;;;;;;;5.28;4.20;;;;;;;26.47;53.37;99004.13;2064904;28;20088;-64
2023/09/17 00:28:13;;;;;;;6.35;3.60;;;;;;;26.47;53.55;99004.13;2060511;28;20058;-61
2023/09/17 00:29:14;;;;;;;5.47;4.68;;;;;;;26.47;53.96;99006.00;2062559;28;20523;-61
2023/09/17 00:30:16;;;;;;;5.07;3.90;;;;;;;26.50;53.68;99011.81;2062025;28;20119;-62
2023/09/17 00:31:17;;;;;;;4.82;4.07;;;;;;;26.52;53.41;99003.38;2060683;28;20616;-62
2023/09/17 00:32:19;;;;;;;4.80;4.30;;;;;;;26.51;53.81;99005.28;2064718;28;20096;-61
2023/09/17 00:33:21;;;;;;;5.20;4.25;;;;;;;26.55;53.16;99005.63;2065002;28;20099;-62
2023/09/17 00:34:23;;;;;;;9.68;4.75;;;;;;;26.55;53.52;98999.34;2063792;28;20217;-62
2023/09/17 00:35:23;;;;;;;4.95;4.05;;;;;;;26.54;53.39;98998.53;2065031;28;20417;-60
2023/09/17 00:36:26;;;;;;;4.97;4.53;;;;;;;26.55;53.08;99000.19;2063784;28;20049;-62
2023/09/17 00:37:27;;;;;;;6.20;4.15;;;;;;;26.53;53.20;98996.91;2063081;28;20053;-61
2023/09/17 00:38:28;;;;;;;3.95;3.50;;;;;;;26.56;53.42;98990.13;2064087;28;20593;-61
2023/09/17 00:39:31;;;;;;;6.00;4.20;;;;;;;26.58;52.94;98994.25;2060584;28;20145;-61
2023/09/17 00:40:34;;;;;;;6.43;3.70;;;;;;;26.54;53.60;98997.72;2059527;28;20046;-61
2023/09/17 00:41:36;;;;;;;6.30;3.85;;;;;;;26.54;53.03;98993.09;2058226;28;20053;-63
2023/09/17 00:42:37;;;;;;;5.68;4.18;;;;;;;26.52;53.39;98995.22;2059929;28;20046;-63
2023/09/17 00:43:39;;;;;;;5.88;3.45;;;;;;;26.52;53.13;98996.06;2065352;28;20042;-62
2023/09/17 00:44:40;;;;;;;4.43;4.03;;;;;;;26.52;53.04;98996.06;2062780;28;20050;-62
2023/09/17 00:45:44;;;;;;;6.72;4.45;;;;;;;26.54;53.32;98990.38;2061705;28;20101;-63
2023/09/17 00:46:45;;;;;;;5.15;4.30;;;;;;;26.52;53.70;99000.66;2065912;28;20476;-63
2023/09/17 00:47:46;;;;;;;4.97;3.85;;;;;;;26.55;53.29;98993.91;2058881;28;20054;-63
2023/09/17 00:48:48;;;;;;;5.80;4.15;;;;;;;26.51;53.30;98999.84;2058500;28;20056;-63
2023/09/17 00:49:49;;;;;;;5.88;4.57;;;;;;;26.51;53.29;98999.03;2054017;28;20089;-63
2023/09/17 00:50:52;;;;;;;5.07;4.18;;;;;;;26.49;53.39;98998.41;2060242;28;20054;-63
2023/09/17 00:51:53;;;;;;;6.53;4.53;;;;;;;26.50;53.20;99000.94;2063262;28;20046;-62
2023/09/17 00:52:55;;;;;;;4.53;3.92;;;;;;;26.51;53.34;98997.13;2062421;28;20128;-63
2023/09/17 00:53:58;;;;;;;4.20;3.80;;;;;;;26.50;53.04;99000.94;2063430;28;20046;-63
2023/09/17 00:55:01;;;;;;;6.93;4.35;;;;;;;26.54;53.14;98998.53;2065018;28;20053;-62
2023/09/17 00:56:03;;;;;;;5.63;3.85;;;;;;;26.49;53.39;98993.81;2061125;28;20578;-63
2023/09/17 00:57:04;;;;;;;4.25;3.85;;;;;;;26.48;53.17;98997.59;2058203;28;20107;-63
2023/09/17 00:58:07;;;;;;;5.00;4.60;;;;;;;26.49;53.56;98988.38;2060645;28;20050;-63
2023/09/17 00:59:08;;;;;;;5.38;4.07;;;;;;;26.51;53.59;98994.41;2061280;28;20567;-63
2023/09/17 01:00:11;;;;;;;9.60;4.55;;;;;;;26.49;53.17;99001.97;2060913;28;20057;-62
2023/09/17 01:01:12;;;;;;;5.05;3.85;;;;;;;26.49;53.46;98992.97;2057207;28;20516;-63
2023/09/17 01:02:16;;;;;;;3.78;3.47;;;;;;;26.46;53.44;98996.19;2057598;28;20056;-64
2023/09/17 01:03:18;;;;;;;4.60;4.20;;;;;;;26.47;53.08;98998.66;2059558;28;20046;-63
2023/09/17 01:04:20;;;;;;;6.50;4.32;;;;;;;26.43;53.76;98996.69;2062893;28;20053;-62
2023/09/17 01:05:21;;;;;;;4.47;3.42;;;;;;;26.47;53.42;98995.13;2060747;28;20671;-63
2023/09/17 01:06:23;;;;;;;3.67;3.38;;;;;;;26.44;53.69;99010.03;2062277;28;20124;-63
2023/09/17 01:07:25;;;;;;;4.80;4.15;;;;;;;26.47;53.07;98995.94;2062659;28;20046;-63
2023/09/17 01:08:27;;;;;;;8.32;5.85;;;;;;;26.46;53.49;99005.16;2060803;28;20637;-63
2023/09/17 01:09:30;;;;;;;5.55;4.53;;;;;;;26.49;53.29;98999.25;2061879;28;20049;-63
2023/09/17 01:10:33;;;;;;;5.07;3.72;;;;;;;26.49;53.27;98999.25;2055995;28;20658;-63
2023/09/17 01:11:35;;;;;;;4.43;3.92;;;;;;;26.47;53.60;99006.84;2060533;28;20062;-63
2023/09/17 01:12:38;;;;;;;4.63;4.20;;;;;;;26.44;53.56;99004.59;2061095;28;20049;-64
2023/09/17 01:13:41;;;;;;;6.72;4.70;;;;;;;26.43;53.07;99002.94;2057835;28;20054;-63
2023/09/17 01:14:46;;;;;;;4.53;4.00;;;;;;;26.49;53.57;99010.13;2061862;28;20054;-63
2023/09/17 01:15:47;;;;;;;4.47;4.00;;;;;;;26.45;53.63;99005.44;2061098;28;20114;-63
2023/09/17 01:16:49;;;;;;;4.63;4.22;;;;;;;26.39;53.70;99009.13;2061670;28;20054;-64
2023/09/17 01:17:53;;;;;;;5.28;4.13;;;;;;;26.38;53.20;99005.56;2056260;28;20512;-63
2023/09/17 01:18:55;;;;;;;6.53;4.03;;;;;;;26.35;53.67;99000.63;2055847;28;20050;-63
2023/09/17 01:19:57;;;;;;;9.35;5.13;;;;;;;26.38;53.44;99008.28;2059461;28;20111;-63
2023/09/17 01:21:07;;;;;;;6.45;4.63;;;;;;;26.42;53.63;99006.75;2056210;28;20108;-63
2023/09/17 01:22:14;;;;;;;5.43;3.93;;;;;;;26.34;53.59;98998.97;2059561;28;20355;-63
2023/09/17 01:23:27;;;;;;;7.07;4.10;;;;;;;26.28;53.73;99005.41;2062189;28;20914;-63
2023/09/17 01:24:40;;;;;;;4.72;4.00;;;;;;;26.30;53.34;99003.28;2061094;28;20061;-63
2023/09/17 01:25:53;;;;;;;8.48;5.20;;;;;;;26.27;53.65;99001.03;2060916;28;22411;-64
2023/09/17 01:27:01;;;;;;;4.30;3.83;;;;;;;26.40;53.17;98997.19;2063398;28;20107;-64
2023/09/17 01:28:06;;;;;;;9.80;4.50;;;;;;;26.39;53.59;98995.53;2058334;28;20096;-64
2023/09/17 01:29:07;;;;;;;4.53;3.95;;;;;;;26.34;53.61;98998.97;2058648;28;20432;-64
2023/09/17 01:30:15;;;;;;;4.68;4.22;;;;;;;26.30;53.80;98995.94;2056194;28;20189;-63
2023/09/17 01:31:16;;;;;;;7.88;4.30;;;;;;;26.25;53.66;98995.03;2058716;28;20137;-63
2023/09/17 01:32:19;;;;;;;4.57;4.18;;;;;;;26.23;53.67;98991.72;2062210;28;20050;-63
2023/09/17 01:33:20;;;;;;;5.80;4.63;;;;;;;26.18;53.82;99000.59;2063748;28;20050;-64
2023/09/17 01:34:23;;;;;;;5.53;4.57;;;;;;;26.19;54.09;98990.56;2059696;28;20761;-64
2023/09/17 01:35:24;;;;;;;4.40;4.00;;;;;;;26.27;53.84;98991.00;2063373;28;20201;-63
2023/09/17 01:36:32;;;;;;;5.85;4.55;;;;;;;26.26;53.65;98988.50;2064698;28;20051;-63
2023/09/17 01:37:36;;;;;;;6.80;4.65;;;;;;;26.18;53.89;98986.19;2054649;28;20657;-64
2023/09/17 01:38:45;;;;;;;6.82;4.13;;;;;;;26.16;54.05;98982.88;2061262;28;20508;-63
2023/09/17 01:39:53;;;;;;;5.35;3.95;;;;;;;26.13;53.83;98986.91;2059855;28;20132;-63
2023/09/17 01:40:56;;;;;;;6.32;3.92;;;;;;;26.16;53.77;98980.16;2062817;28;20062;-64
2023/09/17 01:42:02;;;;;;;6.22;4.10;;;;;;;26.11;54.23;98989.06;2063571;28;22283;-64
2023/09/17 01:43:05;;;;;;;5.38;4.88;;;;;;;26.14;54.08;98987.75;2065639;28;20429;-63
2023/09/17 01:44:08;;;;;;;5.10;4.57;;;;;;;26.16;54.07;98985.59;2059712;28;20053;-63
2023/09/17 01:45:12;;;;;;;5.22;4.72;;;;;;;26.15;54.20;98979.34;2060730;28;20128;-63
2023/09/17 01:46:16;;;;;;;7.40;4.78;;;;;;;26.15;53.85;98973.09;2061931;28;20057;-64
2023/09/17 01:47:19;;;;;;;5.30;3.83;;;;;;;26.14;53.92;98975.00;2063924;28;20463;-63
2023/09/17 01:48:22;;;;;;;6.30;4.45;;;;;;;26.12;54.31;98979.03;2064991;28;20069;-63
2023/09/17 01:49:24;;;;;;;4.72;4.30;;;;;;;26.18;54.04;98980.75;2062028;28;20512;-64
2023/09/17 01:50:25;;;;;;;5.68;4.13;;;;;;;26.18;53.80;98969.88;2063365;28;20688;-64
2023/09/17 01:51:29;;;;;;;6.57;4.78;;;;;;;26.16;53.63;98963.84;2064921;28;20053;-63
2023/09/17 01:52:32;;;;;;;4.18;3.75;;;;;;;26.17;53.72;98965.53;2062381;28;20390;-63
2023/09/17 01:53:35;;;;;;;4.32;3.85;;;;;;;26.15;53.61;98968.47;2061536;28;20473;-63
2023/09/17 01:54:36;;;;;;;5.50;4.55;;;;;;;26.11;54.01;98963.78;2050440;28;20065;-63
2023/09/17 01:55:37;;;;;;;5.43;4.80;;;;;;;26.10;54.05;98962.13;2061217;28;20149;-63
2023/09/17 01:56:39;;;;;;;7.10;4.38;;;;;;;26.08;54.09;98959.66;2062975;28;20143;-63
2023/09/17 01:57:42;;;;;;;5.45;4.05;;;;;;;26.07;54.18;98958.81;2063881;28;20050;-63
2023/09/17 01:58:44;;;;;;;6.60;5.15;;;;;;;26.06;54.14;98959.06;2061171;28;20053;-63
2023/09/17 01:59:44;;;;;;;7.20;4.88;;;;;;;26.05;53.96;98958.25;2059365;28;20448;-63
2023/09/17 02:00:47;;;;;;;5.85;5.25;;;;;;;26.05;54.37;98958.25;2059641;28;20081;-63
2023/09/17 02:01:48;;;;;;;5.18;4.60;;;;;;;26.05;54.50;98963.69;2063009;28;20042;-63
2023/09/17 02:02:52;;;;;;;7.05;4.60;;;;;;;26.05;54.15;98966.41;2060837;28;20449;-63
2023/09/17 02:03:53;;;;;;;5.28;4.32;;;;;;;26.04;54.42;98962.03;2062599;28;20077;-63
2023/09/17 02:04:55;;;;;;;4.85;4.22;;;;;;;26.05;54.32;98962.88;2056236;28;20541;-64
2023/09/17 02:05:57;;;;;;;5.93;4.70;;;;;;;26.10;53.91;98960.22;2058838;28;20053;-63
2023/09/17 02:06:59;;;;;;;8.68;5.03;;;;;;;26.14;54.13;98963.28;2062667;28;20087;-63
2023/09/17 02:08:00;;;;;;;5.38;4.22;;;;;;;26.11;54.10;98959.16;2060974;28;20057;-62
2023/09/17 02:09:04;;;;;;;6.57;4.45;;;;;;;26.10;54.23;98960.22;2061727;28;20113;-62
2023/09/17 02:10:06;;;;;;;4.80;4.30;;;;;;;26.07;53.81;98964.25;2059751;28;20076;-63
2023/09/17 02:11:08;;;;;;;4.60;4.15;;;;;;;26.10;53.79;98962.13;2063426;28;20115;-63
2023/09/17 02:12:09;;;;;;;7.32;4.35;;;;;;;26.08;54.02;98962.38;2056693;28;20374;-63
2023/09/17 02:13:13;;;;;;;4.45;3.83;;;;;;;26.12;54.09;98962.72;2063560;28;21022;-63
2023/09/17 02:14:15;;;;;;;5.95;3.85;;;;;;;26.16;53.60;98966.56;2055699;28;20069;-63
2023/09/17 02:15:17;;;;;;;5.28;4.43;;;;;;;26.17;53.63;98968.25;2062202;28;20658;-64
2023/09/17 02:16:20;;;;;;;4.68;4.18;;;;;;;26.25;53.58;98967.84;2058773;28;20046;-63
2023/09/17 02:17:23;;;;;;;4.32;3.83;;;;;;;26.19;53.88;98960.66;2063953;28;20560;-63
2023/09/17 02:18:24;;;;;;;5.75;4.75;;;;;;;26.21;53.25;98964.75;2060366;28;20053;-63
2023/09/17 02:19:26;;;;;;;4.18;3.80;;;;;;;26.22;53.71;98968.34;2059414;28;20171;-63
2023/09/17 02:20:27;;;;;;;6.18;4.32;;;;;;;26.13;53.75;98969.78;2065353;28;20417;-63
2023/09/17 02:21:29;;;;;;;5.20;4.80;;;;;;;26.16;53.97;98964.69;2064258;28;20101;-62
2023/09/17 02:22:30;;;;;;;4.60;4.20;;;;;;;26.11;54.02;98967.31;2063935;28;20061;-63
2023/09/17 02:23:33;;;;;;;7.80;4.07;;;;;;;26.10;53.63;98962.13;2062209;28;20050;-62
2023/09/17 02:24:34;;;;;;;5.75;4.50;;;;;;;26.08;54.09;98965.91;2063527;28;20046;-63
2023/09/17 02:25:35;;;;;;;7.70;4.35;;;;;;;26.06;53.81;98965.31;2060268;28;20053;-63
2023/09/17 02:26:36;;;;;;;4.70;4.30;;;;;;;26.06;54.21;98961.78;2062777;28;20363;-63
2023/09/17 02:27:39;;;;;;;4.53;4.13;;;;;;;26.15;53.58;98967.66;2063119;28;20149;-63
2023/09/17 02:28:42;;;;;;;4.78;3.70;;;;;;;26.21;53.20;98966.66;2063434;28;20378;-62
2023/09/17 02:29:44;;;;;;;5.75;4.18;;;;;;;26.18;53.63;98961.72;2060977;28;20046;-63
2023/09/17 02:30:47;;;;;;;5.38;4.57;;;;;;;26.21;53.20;98967.47;2048377;28;20489;-62
2023/09/17 02:31:49;;;;;;;5.00;4.18;;;;;;;26.23;53.52;98967.25;2060494;28;20057;-62
2023/09/17 02:32:50;;;;;;;4.97;4.57;;;;;;;26.22;53.65;98971.06;2060064;28;20095;-63
2023/09/17 02:33:52;;;;;;;7.15;4.30;;;;;;;26.15;53.71;98964.94;2060521;28;20446;-63
2023/09/17 02:34:53;;;;;;;6.05;4.43;;;;;;;26.13;53.96;98964.34;2059599;28;20121;-63
2023/09/17 02:35:55;;;;;;;6.47;4.68;;;;;;;26.20;53.69;98967.75;2065238;28;20393;-63
2023/09/17 02:36:56;;;;;;;5.35;4.82;;;;;;;26.26;53.23;98969.47;2065329;28;20111;-63
2023/09/17 02:37:58;;;;;;;6.22;3.92;;;;;;;26.25;53.18;98978.72;2067589;28;20496;-63
2023/09/17 02:38:59;;;;;;;5.50;4.03;;;;;;;26.28;53.35;98972.78;2066291;28;20061;-63
2023/09/17 02:40:02;;;;;;;5.15;4.45;;;;;;;26.27;53.05;98971.97;2061125;28;20072;-63
2023/09/17 02:41:03;;;;;;;5.60;4.57;;;;;;;26.33;52.86;98966.59;2061751;28;20058;-62
2023/09/17 02:42:05;;;;;;;6.47;4.63;;;;;;;26.36;52.97;98972.38;2065117;28;20085;-63
2023/09/17 02:43:06;;;;;;;5.40;4.30;;;;;;;26.39;53.06;98974.59;2063475;28;20112;-63
2023/09/17 02:44:10;;;;;;;5.55;4.47;;;;;;;26.38;52.97;98970.22;2059832;28;20141;-63
2023/09/17 02:45:11;;;;;;;7.03;4.90;;;;;;;26.37;52.47;98971.28;2061354;28;20836;-63
2023/09/17 02:46:13;;;;;;;4.65;3.90;;;;;;;26.36;53.05;98975.09;2051680;28;20069;-63
2023/09/17 02:47:14;;;;;;;5.70;4.38;;;;;;;26.32;52.85;98971.19;2059444;28;20057;-62
2023/09/17 02:48:16;;;;;;;4.10;3.70;;;;;;;26.32;52.96;98963.03;2062501;28;20884;-63
2023/09/17 02:49:21;;;;;;;5.20;4.70;;;;;;;26.27;53.00;98971.13;2059326;28;20054;-62
2023/09/17 02:50:23;;;;;;;8.18;3.63;;;;;;;26.25;53.22;98967.84;2064012;28;20054;-63
2023/09/17 02:51:25;;;;;;;5.30;4.80;;;;;;;26.29;53.22;98966.25;2065610;28;20740;-63
2023/09/17 02:52:27;;;;;;;7.10;4.10;;;;;;;26.29;53.32;98961.63;2066782;28;20069;-62
2023/09/17 02:53:28;;;;;;;4.32;3.92;;;;;;;26.35;52.55;98954.38;2065817;28;20058;-65
2023/09/17 02:54:30;;;;;;;5.07;4.20;;;;;;;26.36;52.70;98955.25;2062456;28;20049;-63
2023/09/17 02:55:32;;;;;;;4.60;3.95;;;;;;;26.33;53.13;98956.56;2063432;28;20053;-63
2023/09/17 02:56:34;;;;;;;8.13;4.80;;;;;;;26.23;53.50;98953.66;2061028;28;20050;-63
2023/09/17 02:57:35;;;;;;;4.63;4.22;;;;;;;26.26;53.16;98953.16;2060555;28;20053;-63
2023/09/17 02:58:38;;;;;;;4.22;3.92;;;;;;;26.23;53.18;98953.66;2058411;28;20429;-63
2023/09/17 02:59:40;;;;;;;5.65;4.63;;;;;;;26.18;53.40;98961.72;2062448;28;20053;-62
2023/09/17 03:00:43;;;;;;;7.45;4.13;;;;;;;26.19;53.26;98955.22;2059332;28;20081;-63
2023/09/17 03:01:44;;;;;;;6.10;4.05;;;;;;;26.18;53.51;98957.09;2062297;28;20062;-63
2023/09/17 03:02:47;;;;;;;8.82;4.50;;;;;;;26.23;53.36;98954.47;2055432;28;20085;-63
2023/09/17 03:03:48;;;;;;;7.20;3.92;;;;;;;26.22;53.05;98949.31;2061165;28;20065;-63
2023/09/17 03:04:52;;;;;;;5.63;4.38;;;;;;;26.20;53.10;98954.16;2059974;28;20058;-63
2023/09/17 03:05:53;;;;;;;4.88;4.47;;;;;;;26.16;53.75;98953.81;2060557;28;20046;-63
2023/09/17 03:06:56;;;;;;;4.88;4.45;;;;;;;26.13;53.67;98958.91;2062087;28;20134;-63
2023/09/17 03:07:58;;;;;;;5.15;3.88;;;;;;;26.13;53.49;98950.75;2059029;28;20132;-63
2023/09/17 03:09:00;;;;;;;4.30;3.70;;;;;;;26.15;53.15;98945.91;2062034;28;20440;-63
2023/09/17 03:10:02;;;;;;;4.57;3.92;;;;;;;26.13;53.38;98950.75;2063227;28;20088;-63
2023/09/17 03:11:04;;;;;;;5.63;5.00;;;;;;;26.06;53.65;98949.03;2060633;28;20731;-63
2023/09/17 03:12:06;;;;;;;5.15;4.57;;;;;;;26.02;53.78;98947.03;2060012;28;20055;-62
2023/09/17 03:13:08;;;;;;;5.38;4.45;;;;;;;25.98;53.89;98951.31;2061088;28;20115;-63
2023/09/17 03:14:09;;;;;;;5.57;4.45;;;;;;;25.97;54.13;98947.78;2059072;28;20061;-63
2023/09/17 03:15:12;;;;;;;5.03;4.53;;;;;;;26.05;53.47;98950.09;2061199;28;20046;-63
2023/09/17 03:16:16;;;;;;;4.55;3.50;;;;;;;26.03;54.14;98952.22;2064440;28;20060;-63
2023/09/17 03:17:18;;;;;;;5.88;4.25;;;;;;;26.02;53.79;98947.03;2063092;28;20081;-63
2023/09/17 03:18:19;;;;;;;7.75;4.53;;;;;;;26.01;53.61;98948.09;2064233;28;20057;-63
2023/09/17 03:19:21;;;;;;;5.95;4.30;;;;;;;26.01;53.92;98943.50;2063869;28;20464;-63
2023/09/17 03:20:22;;;;;;;4.82;4.40;;;;;;;26.02;53.50;98947.88;2065034;28;20111;-63
2023/09/17 03:21:24;;;;;;;4.47;4.07;;;;;;;26.05;53.81;98949.28;2061827;28;20054;-63
2023/09/17 03:22:25;;;;;;;6.90;4.85;;;;;;;26.17;53.46;98941.06;2063414;28;20133;-62
2023/09/17 03:23:26;;;;;;;4.03;3.63;;;;;;;26.23;53.17;98934.63;2065657;28;20053;-63
2023/09/17 03:24:28;;;;;;;7.30;4.07;;;;;;;26.25;52.67;98933.31;2063915;28;20466;-63
2023/09/17 03:25:31;;;;;;;4.78;3.63;;;;;;;26.35;52.67;98940.78;2061520;28;20061;-62
2023/09/17 03:26:33;;;;;;;5.13;4.60;;;;;;;26.38;52.75;98937.56;2063617;28;20050;-63
2023/09/17 03:27:34;;;;;;;4.68;4.28;;;;;;;26.38;52.77;98932.13;2059747;28;20100;-63
2023/09/17 03:28:36;;;;;;;6.10;4.72;;;;;;;26.38;52.35;98939.47;2062281;28;20078;-63
2023/09/17 03:29:37;;;;;;;6.07;5.47;;;;;;;26.31;52.64;98936.94;2059228;28;20097;-63
2023/09/17 03:30:40;;;;;;;4.97;4.47;;;;;;;26.31;52.44;98945.09;2059844;28;20058;-63
2023/09/17 03:31:41;;;;;;;4.93;3.20;;;;;;;26.36;52.71;98944.38;2061043;28;20054;-63
2023/09/17 03:32:43;;;;;;;5.07;4.28;;;;;;;26.38;52.54;98944.91;2062922;28;20050;-63
2023/09/17 03:33:44;;;;;;;4.03;3.70;;;;;;;26.36;52.81;98936.22;2059800;28;20058;-63
2023/09/17 03:34:46;;;;;;;7.22;4.25;;;;;;;26.30;52.76;98940.75;2060093;28;20108;-63
2023/09/17 03:35:47;;;;;;;5.93;4.60;;;;;;;26.36;52.35;98937.03;2063199;28;20068;-63
2023/09/17 03:36:50;;;;;;;5.93;4.72;;;;;;;26.34;52.67;98938.34;2059632;28;20833;-63
2023/09/17 03:37:51;;;;;;;5.60;3.83;;;;;;;26.25;52.70;98944.19;2061030;28;20054;-63
2023/09/17 03:38:53;;;;;;;5.10;4.45;;;;;;;26.15;53.26;98945.91;2061869;28;20050;-63
2023/09/17 03:40:07;;;;;;;4.55;4.03;;;;;;;26.06;53.31;98949.03;2060765;28;20088;-63
2023/09/17 03:41:09;;;;;;;6.78;5.35;;;;;;;26.02;53.65;98944.31;2063483;28;20069;-62
2023/09/17 03:42:10;;;;;;;5.05;4.55;;;;;;;25.98;53.45;98940.44;2061501;28;20054;-63
2023/09/17 03:43:12;;;;;;;7.03;4.65;;;;;;;26.00;53.59;98941.84;2060895;28;20490;-63
2023/09/17 03:44:14;;;;;;;7.07;4.93;;;;;;;25.98;54.05;98945.88;2065323;28;20058;-63
2023/09/17 03:45:15;;;;;;;6.72;4.88;;;;;;;25.97;54.07;98936.91;2063940;28;20057;-63
2023/09/17 03:46:19;;;;;;;5.07;4.57;;;;;;;26.04;53.37;98945.72;2061502;28;20054;-63
2023/09/17 03:47:21;;;;;;;6.50;4.57;;;;;;;26.06;53.41;98946.31;2056410;28;20049;-63
2023/09/17 03:48:23;;;;;;;4.38;3.97;;;;;;;26.19;52.89;98950.63;2060022;28;20104;-63
2023/09/17 03:49:26;;;;;;;4.78;4.32;;;;;;;26.24;52.91;98955.28;2064945;28;20479;-63
2023/09/17 03:50:28;;;;;;;5.18;3.80;;;;;;;26.26;52.75;98942.28;2061658;28;20100;-62
2023/09/17 03:51:30;;;;;;;5.70;3.90;;;;;;;26.31;52.70;98950.53;2063926;28;20065;-63
2023/09/17 03:52:34;;;;;;;4.65;3.85;;;;;;;26.32;52.85;98946.72;2057261;28;20694;-62
2023/09/17 03:53:35;;;;;;;5.45;4.35;;;;;;;26.35;52.84;98961.72;2061873;28;20061;-63
2023/09/17 03:54:37;;;;;;;5.18;4.65;;;;;;;26.35;52.55;98954.38;2062606;28;20493;-63
2023/09/17 03:55:39;;;;;;;5.38;4.82;;;;;;;26.36;52.23;98953.34;2059450;28;21662;-63
2023/09/17 03:56:41;;;;;;;6.00;4.60;;;;;;;26.37;52.58;98952.25;2060006;28;20725;-63
2023/09/17 03:57:43;;;;;;;6.03;4.10;;;;;;;26.41;52.08;98956.16;2054634;28;20069;-62
2023/09/17 03:58:47;;;;;;;6.15;4.57;;;;;;;26.36;52.32;98957.97;2062263;28;20485;-63
2023/09/17 03:59:48;;;;;;;4.65;4.25;;;;;;;26.36;52.76;98956.06;2060792;28;20166;-63
2023/09/17 04:00:50;;;;;;;5.88;3.90;;;;;;;26.36;52.23;98950.63;2060907;28;20505;-63
2023/09/17 04:01:52;;;;;;;4.32;3.92;;;;;;;26.35;52.57;98957.13;2059358;28;20053;-63
2023/09/17 04:02:55;;;;;;;6.32;4.45;;;;;;;26.32;52.38;98959.50;2050767;28;20164;-63
2023/09/17 04:03:56;;;;;;;7.03;4.25;;;;;;;26.28;52.88;98960.00;2059822;28;20370;-63
2023/09/17 04:04:57;;;;;;;4.32;3.97;;;;;;;26.32;52.51;98963.03;2060147;28;20518;-62
2023/09/17 04:05:59;;;;;;;6.38;4.45;;;;;;;26.33;52.64;98955.72;2064387;28;20145;-63
2023/09/17 04:07:00;;;;;;;4.57;3.70;;;;;;;26.31;52.43;98961.41;2064753;28;20115;-62
2023/09/17 04:08:03;;;;;;;4.88;4.47;;;;;;;26.29;52.73;98964.38;2066360;28;20424;-62
2023/09/17 04:09:04;;;;;;;5.70;3.95;;;;;;;26.34;52.57;98969.06;2061902;28;20185;-62
2023/09/17 04:10:07;;;;;;;5.80;4.63;;;;;;;26.34;52.11;98960.09;2056650;28;20144;-62
2023/09/17 04:11:08;;;;;;;4.88;4.07;;;;;;;26.27;52.48;98962.94;2062101;28;20066;-62
2023/09/17 04:12:11;;;;;;;4.97;4.47;;;;;;;26.24;52.90;98966.16;2063811;28;20054;-62
2023/09/17 04:13:12;;;;;;;6.32;4.55;;;;;;;26.18;52.54;98973.41;2061220;28;20512;-62
2023/09/17 04:14:14;;;;;;;3.78;3.42;;;;;;;26.26;52.81;98977.63;2067464;28;21457;-62
2023/09/17 04:15:19;;;;;;;5.38;4.82;;;;;;;26.23;52.92;98978.13;2064630;28;20081;-62
2023/09/17 04:16:23;;;;;;;4.82;4.30;;;;;;;26.18;52.71;98978.03;2063546;28;20054;-62
2023/09/17 04:17:25;;;;;;;4.30;3.90;;;;;;;26.23;52.42;98978.13;2060738;28;20085;-62
2023/09/17 04:18:28;;;;;;;5.35;3.78;;;;;;;26.19;52.64;98977.81;2060504;28;20092;-63
2023/09/17 04:19:29;;;;;;;6.30;4.05;;;;;;;26.16;52.86;98977.44;2050087;28;20116;-63
2023/09/17 04:20:31;;;;;;;4.10;3.80;;;;;;;26.17;52.70;98969.06;2062913;28;20041;-63
2023/09/17 04:21:32;;;;;;;5.22;4.72;;;;;;;26.24;52.96;98971.59;2066621;28;20050;-63
2023/09/17 04:22:35;;;;;;;9.95;4.85;;;;;;;26.26;52.81;98969.47;2050129;28;20061;-63
2023/09/17 04:23:35;;;;;;;4.82;4.38;;;;;;;26.30;52.54;98965.22;2057469;28;20038;-63
2023/09/17 04:24:38;;;;;;;5.40;3.95;;;;;;;26.29;52.50;98958.91;2058633;28;20132;-63
2023/09/17 04:25:39;;;;;;;5.22;4.00;;;;;;;26.25;52.75;98973.28;2060166;28;20054;-63
2023/09/17 04:26:40;;;;;;;5.05;4.55;;;;;;;26.25;52.33;98971.38;2063021;28;20104;-63
2023/09/17 04:27:43;;;;;;;4.90;4.05;;;;;;;26.21;52.86;98972.09;2060155;28;20196;-63
2023/09/17 04:28:46;;;;;;;5.63;4.35;;;;;;;26.14;52.95;98972.28;2060210;28;20064;-63
2023/09/17 04:29:48;;;;;;;5.03;4.53;;;;;;;26.10;53.28;98975.72;2061271;28;20053;-63
2023/09/17 04:30:49;;;;;;;9.30;4.90;;;;;;;26.16;52.71;98974.72;2061886;28;20132;-63
2023/09/17 04:31:52;;;;;;;4.60;4.05;;;;;;;26.13;53.23;98980.66;2062551;28;20050;-63
2023/09/17 04:32:54;;;;;;;4.85;4.45;;;;;;;26.21;52.55;98972.09;2063137;28;20053;-63
2023/09/17 04:33:57;;;;;;;4.82;4.35;;;;;;;26.14;52.87;98972.28;2060917;28;20458;-63
2023/09/17 04:34:58;;;;;;;4.68;4.18;;;;;;;26.16;52.97;98967.41;2064405;28;20045;-63
2023/09/17 04:35:59;;;;;;;4.82;4.35;;;;;;;26.18;52.58;98972.59;2062129;28;20077;-63
2023/09/17 04:37:00;;;;;;;4.45;4.05;;;;;;;26.25;52.34;98973.28;2063633;28;20058;-63
2023/09/17 04:38:02;;;;;;;5.13;4.30;;;;;;;26.21;52.51;98972.09;2060065;28;20592;-63
2023/09/17 04:39:03;;;;;;;4.30;3.85;;;;;;;26.20;52.66;98973.19;2063651;28;20142;-63
2023/09/17 04:40:08;;;;;;;4.95;3.90;;;;;;;26.14;53.07;98977.72;2064174;28;20054;-63
2023/09/17 04:41:09;;;;;;;5.47;4.43;;;;;;;26.13;52.61;98976.03;2058465;28;20069;-62
2023/09/17 04:42:11;;;;;;;6.38;4.45;;;;;;;26.11;53.24;98982.81;2059665;28;20137;-63
2023/09/17 04:43:12;;;;;;;4.95;4.35;;;;;;;26.13;53.15;98978.75;2065431;28;21914;-63
2023/09/17 04:44:14;;;;;;;6.85;5.35;;;;;;;26.11;53.12;98978.19;2061837;28;20132;-63
2023/09/17 04:45:31;;;;;;;4.30;3.90;;;;;;;26.08;52.87;98984.94;2062967;28;20053;-62
2023/09/17 04:46:33;;;;;;;4.88;4.35;;;;;;;26.01;53.32;98975.28;2061344;28;20054;-63
2023/09/17 04:47:35;;;;;;;5.50;4.05;;;;;;;26.09;52.99;98974.88;2048094;28;20074;-62
2023/09/17 04:48:38;;;;;;;4.53;4.13;;;;;;;26.22;52.80;98984.66;2064192;28;20076;-63
2023/09/17 04:49:39;;;;;;;7.57;4.60;;;;;;;26.16;52.93;98985.59;2065615;28;20497;-63
2023/09/17 04:50:44;;;;;;;5.68;3.88;;;;;;;26.20;52.71;98984.88;2061297;28;20058;-62
2023/09/17 04:51:45;;;;;;;4.40;4.00;;;;;;;26.20;52.86;98987.59;2064918;28;20053;-62
2023/09/17 04:52:47;;;;;;;4.45;4.03;;;;;;;26.24;52.60;98982.47;2063957;28;20517;-63
2023/09/17 04:53:48;;;;;;;3.95;3.65;;;;;;;26.20;52.88;98978.63;2062012;28;20050;-63